Time;durP1;ratioP1;P1;durP2;ratioP2;P2;SDS_P1;SDS_P2;PMS_P1;PMS_P2;Temp;Humidity;BMP_temperature;BMP_pressure;BME280_temperature;BME280_humidity;BME280_pressure;Samples;Min_cycle;Max_cycle;Signal;HPM_P1;HPM_P2
2023/09/09 00:02:14;;;;;;;4.90;3.25;;;;;;;28.14;30.61;96486.97;5085377;28;20090;-29
2023/09/09 00:04:40;;;;;;;4.10;3.70;;;;;;;28.11;30.86;96490.09;5086199;28;20378;-28
2023/09/09 00:07:06;;;;;;;5.30;3.53;;;;;;;27.98;30.86;96490.88;5077184;28;20556;-28
2023/09/09 00:09:32;;;;;;;6.15;3.42;;;;;;;27.95;31.17;96480.81;5086278;28;20096;-29
2023/09/09 00:11:57;;;;;;;6.88;3.67;;;;;;;27.94;30.97;96484.91;5085569;28;20115;-27
2023/09/09 00:14:24;;;;;;;4.47;3.08;;;;;;;27.94;31.06;96484.91;5077145;28;20024;-28
2023/09/09 00:16:49;;;;;;;5.40;3.40;;;;;;;27.91;30.77;96491.56;5080543;28;20052;-28
2023/09/09 00:19:15;;;;;;;5.15;3.42;;;;;;;27.85;31.16;96483.31;5083034;28;20489;-27
2023/09/09 00:21:40;;;;;;;6.55;3.55;;;;;;;27.92;31.10;96484.69;5078593;28;20439;-28
2023/09/09 00:24:06;;;;;;;3.85;3.40;;;;;;;27.91;30.98;96488.03;5085418;28;20020;-28
2023/09/09 00:26:32;;;;;;;6.13;3.90;;;;;;;27.94;31.13;96482.13;5075467;28;20020;-28
2023/09/09 00:28:58;;;;;;;5.40;3.38;;;;;;;27.87;30.57;96477.94;5082659;28;20421;-29
2023/09/09 00:31:23;;;;;;;4.00;3.38;;;;;;;27.82;30.76;96489.97;5074977;28;20112;-28
2023/09/09 00:33:49;;;;;;;3.88;3.42;;;;;;;27.92;30.64;96489.53;5082445;28;20048;-28
2023/09/09 00:36:15;;;;;;;4.20;3.78;;;;;;;27.96;30.72;96487.88;5082560;28;20469;-28
2023/09/09 00:38:40;;;;;;;5.20;3.63;;;;;;;27.93;30.74;96488.22;5081694;28;20466;-27
2023/09/09 00:41:11;;;;;;;5.20;3.47;;;;;;;27.95;30.97;96485.63;5074427;28;20035;-29
2023/09/09 00:43:38;;;;;;;4.55;3.42;;;;;;;27.87;31.47;96485.56;5081892;28;20016;-29
2023/09/09 00:46:05;;;;;;;4.43;3.45;;;;;;;28.00;30.92;96482.72;5082643;28;20027;-27
2023/09/09 00:48:30;;;;;;;3.45;3.03;;;;;;;27.88;30.76;96482.22;5081964;28;20086;-28
2023/09/09 00:50:56;;;;;;;3.83;3.42;;;;;;;27.94;30.87;96479.34;5083586;28;20473;-27
2023/09/09 00:53:22;;;;;;;4.82;3.22;;;;;;;27.99;30.63;96481.22;5080083;28;20063;-28
2023/09/09 00:55:47;;;;;;;3.30;2.90;;;;;;;27.94;30.72;96479.34;5081569;28;20509;-28
2023/09/09 00:58:13;;;;;;;4.95;3.60;;;;;;;27.81;30.89;96471.03;5077186;28;20012;-28
2023/09/09 01:00:39;;;;;;;4.25;3.80;;;;;;;27.82;30.67;96469.69;5085426;28;20023;-27
2023/09/09 01:03:05;;;;;;;4.90;3.75;;;;;;;27.81;30.93;96471.78;5076950;28;20069;-28
2023/09/09 01:05:32;;;;;;;5.20;3.60;;;;;;;27.81;30.79;96468.22;5084690;28;20031;-28
2023/09/09 01:07:57;;;;;;;6.10;3.67;;;;;;;27.77;31.33;96467.81;5076437;28;20535;-28
2023/09/09 01:10:23;;;;;;;5.28;3.20;;;;;;;27.96;30.51;96471.16;5084122;28;20115;-28
2023/09/09 01:12:50;;;;;;;3.97;3.22;;;;;;;27.76;31.04;96460.72;5079230;28;20044;-27
2023/09/09 01:15:16;;;;;;;8.70;3.60;;;;;;;27.79;30.99;96459.66;5082404;28;20024;-28
2023/09/09 01:17:42;;;;;;;4.82;3.30;;;;;;;27.66;31.24;96462.47;5084964;28;20472;-28
2023/09/09 01:20:14;;;;;;;3.63;3.22;;;;;;;27.82;31.06;96464.13;5084377;28;20419;-28
2023/09/09 01:22:44;;;;;;;5.40;3.60;;;;;;;27.80;30.78;96463.94;5080750;28;20025;-28
2023/09/09 01:25:11;;;;;;;4.53;3.55;;;;;;;27.76;31.07;96464.28;5072811;28;20030;-28
2023/09/09 01:27:37;;;;;;;5.40;3.25;;;;;;;27.94;31.05;96465.41;5083346;28;20028;-28
2023/09/09 01:30:03;;;;;;;3.90;3.50;;;;;;;27.90;30.77;96464.97;5084620;28;20062;-28
2023/09/09 01:32:29;;;;;;;4.70;3.53;;;;;;;27.69;31.01;96464.19;5082904;28;20024;-28
2023/09/09 01:34:55;;;;;;;3.70;3.35;;;;;;;27.69;30.86;96469.78;5084178;28;20024;-28
2023/09/09 01:37:21;;;;;;;3.95;3.55;;;;;;;27.69;31.10;96469.78;5084116;28;20500;-28
2023/09/09 01:39:46;;;;;;;4.80;3.50;;;;;;;27.68;31.25;96471.81;5076067;28;20019;-28
2023/09/09 01:42:12;;;;;;;5.68;3.65;;;;;;;27.64;31.28;96474.16;5086712;28;20044;-27
2023/09/09 01:44:37;;;;;;;4.45;3.28;;;;;;;27.66;31.16;96473.63;5080737;28;20012;-28
2023/09/09 01:47:03;;;;;;;5.45;3.90;;;;;;;27.72;31.10;96474.25;5080819;28;20020;-28
2023/09/09 01:49:28;;;;;;;8.80;3.50;;;;;;;27.68;31.49;96477.38;5087256;28;20538;-29
2023/09/09 01:51:54;;;;;;;8.60;3.72;;;;;;;27.70;30.82;96472.00;5082176;28;20020;-28
2023/09/09 01:54:19;;;;;;;6.53;3.60;;;;;;;27.58;31.23;96467.94;5085167;28;20433;-28
2023/09/09 01:56:45;;;;;;;4.43;3.50;;;;;;;27.62;31.12;96473.19;5076151;28;20028;-28
2023/09/09 01:59:11;;;;;;;7.88;3.80;;;;;;;27.60;31.29;96470.19;5076315;28;20063;-28
2023/09/09 02:01:36;;;;;;;4.25;3.42;;;;;;;27.60;31.09;96473.00;5084254;28;20012;-29
2023/09/09 02:04:02;;;;;;;5.07;3.40;;;;;;;27.59;31.66;96472.25;5081712;28;20423;-28
2023/09/09 02:06:28;;;;;;;4.97;3.50;;;;;;;27.54;31.76;96467.53;5071995;28;20465;-27
2023/09/09 02:08:54;;;;;;;6.60;3.95;;;;;;;27.75;31.28;96470.38;5080626;28;20024;-29
2023/09/09 02:11:19;;;;;;;4.30;3.30;;;;;;;27.71;31.33;96469.94;5081293;28;20057;-27
2023/09/09 02:13:45;;;;;;;4.72;3.40;;;;;;;27.61;31.79;96471.69;5079093;28;20024;-29
2023/09/09 02:16:10;;;;;;;5.25;3.25;;;;;;;27.38;31.93;96474.94;5075239;28;20029;-28
2023/09/09 02:18:37;;;;;;;3.90;3.40;;;;;;;27.78;31.05;96472.09;5083830;28;20413;-28
2023/09/09 02:21:03;;;;;;;5.35;3.40;;;;;;;27.76;31.60;96471.88;5077165;28;20056;-27
2023/09/09 02:23:29;;;;;;;5.10;3.42;;;;;;;27.66;31.72;96470.84;5073385;28;20034;-28
2023/09/09 02:25:55;;;;;;;7.18;3.50;;;;;;;27.62;31.80;96473.19;5078899;28;20409;-28
2023/09/09 02:28:21;;;;;;;4.65;3.30;;;;;;;27.75;31.36;96475.94;5080451;28;20028;-29
2023/09/09 02:30:46;;;;;;;4.85;3.60;;;;;;;27.78;31.19;96477.66;5080430;28;20090;-30
2023/09/09 02:33:13;;;;;;;6.25;3.60;;;;;;;27.64;31.69;96474.16;5081263;28;20079;-28
2023/09/09 02:35:45;;;;;;;4.32;3.78;;;;;;;27.56;31.57;96473.34;5084349;28;20029;-29
2023/09/09 02:38:10;;;;;;;4.90;3.70;;;;;;;27.43;31.67;96479.66;5084673;28;20056;-29
2023/09/09 02:40:36;;;;;;;4.93;3.58;;;;;;;27.58;31.48;96467.19;5084791;28;20051;-27
2023/09/09 02:43:02;;;;;;;3.92;3.53;;;;;;;27.50;31.38;96478.22;5084049;28;20060;-27
2023/09/09 02:45:27;;;;;;;4.70;3.60;;;;;;;27.57;31.71;96477.59;5083552;28;20497;-28
2023/09/09 02:47:53;;;;;;;4.80;3.72;;;;;;;27.54;31.55;96485.00;5084592;28;20028;-28
2023/09/09 02:50:19;;;;;;;4.60;3.38;;;;;;;27.43;31.85;96473.34;5083925;28;20086;-27
2023/09/09 02:52:44;;;;;;;4.10;3.53;;;;;;;27.53;31.68;96483.47;5084474;28;20026;-28
2023/09/09 02:55:09;;;;;;;3.78;3.38;;;;;;;27.54;31.60;96479.41;5080166;28;20019;-27
2023/09/09 02:57:35;;;;;;;3.95;3.38;;;;;;;27.60;31.81;96486.91;5088511;28;20025;-28
2023/09/09 03:00:00;;;;;;;4.43;3.15;;;;;;;27.46;32.09;96478.56;5085085;28;20049;-27
2023/09/09 03:02:26;;;;;;;4.40;3.42;;;;;;;27.37;32.43;96486.59;5083283;28;20028;-27
2023/09/09 03:04:51;;;;;;;5.40;3.60;;;;;;;27.42;32.01;96486.50;5091099;28;20027;-28
2023/09/09 03:07:16;;;;;;;5.13;3.88;;;;;;;27.44;31.87;96480.41;5083899;28;20027;-28
2023/09/09 03:09:42;;;;;;;5.72;3.60;;;;;;;27.41;32.51;96487.78;5083690;28;20021;-29
2023/09/09 03:12:08;;;;;;;5.97;3.75;;;;;;;27.58;31.79;96486.69;5083551;28;20130;-29
2023/09/09 03:14:33;;;;;;;5.90;3.70;;;;;;;27.22;32.33;96487.16;5083419;28;20095;-28
2023/09/09 03:16:59;;;;;;;3.83;3.42;;;;;;;27.39;32.37;96478.47;5082800;28;20038;-29
2023/09/09 03:19:24;;;;;;;5.03;3.90;;;;;;;27.42;32.07;96483.72;5084115;28;20016;-30
2023/09/09 03:21:50;;;;;;;4.45;3.95;;;;;;;27.42;32.50;96489.28;5083500;28;20070;-30
2023/09/09 03:24:15;;;;;;;6.35;3.78;;;;;;;27.44;32.42;96481.16;5084054;28;20362;-27
2023/09/09 03:26:41;;;;;;;3.85;3.42;;;;;;;27.40;32.04;96486.28;5091050;28;20028;-29
2023/09/09 03:29:06;;;;;;;3.92;3.50;;;;;;;27.27;32.74;96483.53;5083258;28;20025;-28
2023/09/09 03:31:33;;;;;;;6.05;3.67;;;;;;;27.33;32.61;96478.56;5084471;28;20466;-28
2023/09/09 03:33:59;;;;;;;4.20;3.80;;;;;;;27.53;32.18;96477.91;5082185;28;20020;-28
2023/09/09 03:36:24;;;;;;;4.30;3.33;;;;;;;27.51;32.05;96474.16;5090360;28;20477;-28
2023/09/09 03:38:50;;;;;;;3.45;3.15;;;;;;;27.54;32.59;96475.88;5084181;28;20047;-28
2023/09/09 03:41:15;;;;;;;6.03;3.90;;;;;;;27.33;32.65;96469.47;5088743;28;20157;-28
2023/09/09 03:43:41;;;;;;;5.22;3.30;;;;;;;27.51;32.48;96477.69;5084969;28;20393;-28
2023/09/09 03:46:06;;;;;;;4.15;3.60;;;;;;;27.52;31.98;96478.44;5081979;28;20074;-28
2023/09/09 03:48:32;;;;;;;4.75;3.40;;;;;;;27.58;32.19;96478.34;5082372;28;20028;-28
2023/09/09 03:50:59;;;;;;;5.63;3.90;;;;;;;27.45;32.61;96470.72;5077792;28;20024;-28
2023/09/09 03:53:25;;;;;;;4.00;3.60;;;;;;;27.41;32.61;96473.88;5085923;28;20020;-28
2023/09/09 03:55:50;;;;;;;7.43;3.72;;;;;;;27.31;32.64;96475.59;5084042;28;20575;-28
2023/09/09 03:58:16;;;;;;;5.03;3.50;;;;;;;27.43;32.45;96476.88;5078811;28;20016;-29
2023/09/09 04:00:41;;;;;;;4.88;3.70;;;;;;;27.37;32.48;96473.44;5087102;28;20412;-28
2023/09/09 04:03:07;;;;;;;5.78;3.80;;;;;;;27.52;32.32;96470.84;5075715;28;20028;-28
2023/09/09 04:05:32;;;;;;;4.93;3.70;;;;;;;27.37;32.59;96479.00;5083175;28;20361;-28
2023/09/09 04:08:03;;;;;;;6.50;3.75;;;;;;;27.43;32.94;96473.34;5075496;28;20020;-29
2023/09/09 04:10:28;;;;;;;4.35;3.58;;;;;;;27.17;33.35;96480.44;5078646;28;20020;-29
2023/09/09 04:12:54;;;;;;;8.38;3.70;;;;;;;27.27;32.74;96483.53;5085879;28;20028;-28
2023/09/09 04:15:20;;;;;;;5.18;3.85;;;;;;;27.47;32.65;96482.84;5082884;28;20080;-29
2023/09/09 04:17:46;;;;;;;5.88;3.92;;;;;;;27.40;32.82;96480.72;5075670;28;20024;-28
2023/09/09 04:20:11;;;;;;;5.45;4.00;;;;;;;27.20;32.74;96489.00;5083270;28;20032;-28
2023/09/09 04:22:37;;;;;;;6.45;3.55;;;;;;;27.22;33.27;96480.84;5082556;28;20485;-28
2023/09/09 04:25:02;;;;;;;3.97;3.30;;;;;;;27.43;32.60;96487.25;5082757;28;20028;-27
2023/09/09 04:27:28;;;;;;;4.80;4.00;;;;;;;27.28;32.86;96482.25;5082057;28;20078;-28
2023/09/09 04:29:53;;;;;;;5.07;3.28;;;;;;;27.33;33.05;96484.13;5082499;28;20021;-28
2023/09/09 04:32:19;;;;;;;5.40;3.80;;;;;;;27.44;32.70;96483.19;5082190;28;20493;-28
2023/09/09 04:34:44;;;;;;;3.85;3.45;;;;;;;27.36;32.96;96488.66;5082904;28;20023;-30
2023/09/09 04:37:10;;;;;;;4.85;3.45;;;;;;;27.34;33.14;96488.44;5080374;28;20024;-29
2023/09/09 04:39:35;;;;;;;5.70;3.45;;;;;;;27.23;33.10;96485.88;5076674;28;20469;-28
2023/09/09 04:42:01;;;;;;;3.55;3.25;;;;;;;27.33;32.79;96481.34;5089238;28;20044;-29
2023/09/09 04:44:26;;;;;;;4.65;3.85;;;;;;;27.47;32.95;96493.97;5074712;28;20017;-28
2023/09/09 04:46:51;;;;;;;4.80;3.60;;;;;;;27.34;33.29;96499.56;5083692;28;20055;-27
2023/09/09 04:49:17;;;;;;;9.88;3.38;;;;;;;27.36;32.89;96497.00;5080534;28;20082;-30
2023/09/09 04:51:43;;;;;;;4.57;3.45;;;;;;;27.28;33.31;96496.16;5089103;28;20020;-29
2023/09/09 04:54:09;;;;;;;6.03;3.60;;;;;;;27.25;33.13;96502.78;5082007;28;20470;-29
2023/09/09 04:56:34;;;;;;;4.55;3.80;;;;;;;27.17;33.66;96504.72;5081052;28;20028;-27
2023/09/09 04:59:00;;;;;;;5.32;3.95;;;;;;;27.29;33.11;96489.31;5082213;28;20091;-28
2023/09/09 05:01:25;;;;;;;6.53;3.70;;;;;;;27.39;33.32;96501.50;5081755;28;20367;-28
2023/09/09 05:03:50;;;;;;;5.38;3.78;;;;;;;27.32;33.02;96502.16;5082028;28;20346;-27
2023/09/09 05:06:16;;;;;;;5.75;3.72;;;;;;;27.32;33.30;96506.97;5081692;28;20026;-29
2023/09/09 05:08:41;;;;;;;5.90;3.90;;;;;;;27.36;32.97;96496.25;5079701;28;20491;-28
2023/09/09 05:11:07;;;;;;;4.93;3.90;;;;;;;27.21;33.20;96501.59;5081870;28;20521;-28
2023/09/09 05:13:33;;;;;;;5.47;3.63;;;;;;;27.25;33.63;96497.22;5084919;28;20024;-28
2023/09/09 05:15:59;;;;;;;4.50;3.83;;;;;;;27.38;33.11;96502.78;5085078;28;20031;-28
2023/09/09 05:18:24;;;;;;;4.00;3.35;;;;;;;27.27;33.78;96500.22;5075841;28;20460;-28
2023/09/09 05:20:50;;;;;;;3.75;3.45;;;;;;;27.27;33.88;96500.22;5079515;28;20480;-28
2023/09/09 05:23:15;;;;;;;4.85;3.40;;;;;;;27.20;33.67;96498.06;5080794;28;20114;-28
2023/09/09 05:25:41;;;;;;;4.07;3.65;;;;;;;27.36;33.44;96501.81;5081741;28;20020;-27
2023/09/09 05:28:07;;;;;;;6.22;3.38;;;;;;;27.24;33.27;96506.88;5080996;28;20108;-29
2023/09/09 05:30:33;;;;;;;5.55;3.90;;;;;;;27.23;33.47;96499.78;5082714;28;20024;-28
2023/09/09 05:32:58;;;;;;;4.70;3.67;;;;;;;27.40;33.38;96505.78;5084393;28;20066;-28
2023/09/09 05:35:24;;;;;;;5.40;3.42;;;;;;;27.23;33.50;96504.59;5084116;28;20048;-28
2023/09/09 05:37:49;;;;;;;4.60;3.70;;;;;;;27.27;33.87;96505.78;5081236;28;20071;-28
2023/09/09 05:40:14;;;;;;;5.53;4.03;;;;;;;27.28;33.85;96507.31;5081159;28;20025;-28
2023/09/09 05:42:40;;;;;;;4.93;4.03;;;;;;;27.42;33.74;96513.59;5074215;28;20217;-29
2023/09/09 05:45:08;;;;;;;4.05;3.60;;;;;;;27.41;33.45;96509.31;5086313;28;20021;-27
2023/09/09 05:47:34;;;;;;;4.88;3.40;;;;;;;27.35;34.02;96512.22;5080473;28;20020;-28
2023/09/09 05:49:59;;;;;;;6.03;4.20;;;;;;;27.46;33.60;96506.41;5076489;28;20047;-29
2023/09/09 05:52:25;;;;;;;6.32;4.28;;;;;;;27.54;33.87;96507.28;5085629;28;20051;-28
2023/09/09 05:54:50;;;;;;;4.78;4.05;;;;;;;27.36;33.66;96515.75;5080747;28;20035;-28
2023/09/09 05:57:16;;;;;;;6.93;4.20;;;;;;;27.41;33.66;96509.31;5080727;28;20462;-30
2023/09/09 05:59:41;;;;;;;6.18;4.03;;;;;;;27.42;33.78;96519.94;5087548;28;20024;-28
2023/09/09 06:02:07;;;;;;;11.90;4.03;;;;;;;27.44;34.12;96513.81;5082536;28;20028;-28
2023/09/09 06:04:33;;;;;;;3.95;3.38;;;;;;;27.35;34.22;96506.63;5084072;28;20015;-28
2023/09/09 06:06:59;;;;;;;5.68;3.67;;;;;;;27.31;34.46;96511.81;5082692;28;20385;-28
2023/09/09 06:09:24;;;;;;;4.65;3.60;;;;;;;27.32;34.32;96524.44;5083641;28;20031;-28
2023/09/09 06:11:50;;;;;;;4.60;3.58;;;;;;;27.31;34.54;96511.81;5078073;28;20024;-28
2023/09/09 06:14:16;;;;;;;5.93;4.43;;;;;;;27.37;34.53;96517.25;5081549;28;20020;-28
2023/09/09 06:16:41;;;;;;;8.32;3.70;;;;;;;27.28;34.26;96512.88;5083977;28;20031;-28
2023/09/09 06:19:07;;;;;;;4.32;3.60;;;;;;;27.38;34.33;96522.28;5075929;28;20021;-28
2023/09/09 06:21:33;;;;;;;6.75;3.95;;;;;;;27.47;34.12;96513.47;5081615;28;20469;-29
2023/09/09 06:23:58;;;;;;;5.03;3.75;;;;;;;27.45;34.06;96515.28;5080317;28;20346;-28
2023/09/09 06:26:24;;;;;;;4.55;3.72;;;;;;;27.43;34.07;96523.47;5074184;28;20025;-27
2023/09/09 06:28:50;;;;;;;6.40;3.58;;;;;;;27.51;34.50;96518.72;5083819;28;20028;-28
2023/09/09 06:31:16;;;;;;;4.18;3.50;;;;;;;27.68;33.66;96521.97;5083354;28;20027;-28
2023/09/09 06:33:41;;;;;;;6.88;3.50;;;;;;;27.56;34.29;96528.31;5079975;28;20066;-28
2023/09/09 06:36:07;;;;;;;4.65;4.00;;;;;;;27.46;34.48;96525.16;5078297;28;20020;-28
2023/09/09 06:38:32;;;;;;;4.18;3.65;;;;;;;27.68;33.75;96526.78;5075339;28;20456;-28
2023/09/09 06:40:58;;;;;;;4.70;3.25;;;;;;;27.41;34.12;96520.47;5083499;28;20020;-28
2023/09/09 06:43:24;;;;;;;5.82;3.60;;;;;;;27.52;34.37;96526.56;5083662;28;20048;-27
2023/09/09 06:45:51;;;;;;;5.60;3.53;;;;;;;27.33;34.46;96533.53;5082512;28;20042;-28
2023/09/09 06:48:17;;;;;;;5.43;3.60;;;;;;;27.61;34.10;96527.41;5078568;28;20020;-29
2023/09/09 06:50:49;;;;;;;4.90;3.55;;;;;;;27.53;34.06;96533.63;5080355;28;20027;-28
2023/09/09 06:53:15;;;;;;;6.83;3.93;;;;;;;27.58;34.26;96534.81;5079982;28;20017;-28
2023/09/09 06:55:44;;;;;;;5.38;3.80;;;;;;;27.41;34.70;96521.22;5080495;28;20017;-27
2023/09/09 06:58:10;;;;;;;6.03;3.53;;;;;;;27.64;34.21;96529.13;5082821;28;20040;-28
2023/09/09 07:00:36;;;;;;;4.93;3.45;;;;;;;27.66;34.21;96529.34;5083035;28;20470;-28
2023/09/09 07:03:01;;;;;;;6.32;3.42;;;;;;;27.66;34.56;96534.94;5074909;28;20020;-28
2023/09/09 07:05:27;;;;;;;5.38;3.60;;;;;;;27.60;34.27;96531.50;5083589;28;20469;-28
2023/09/09 07:07:52;;;;;;;5.20;3.50;;;;;;;27.59;34.43;96538.34;5076550;28;20389;-28
2023/09/09 07:10:18;;;;;;;5.60;3.78;;;;;;;27.61;34.45;96528.16;5082135;28;20043;-28
2023/09/09 07:12:43;;;;;;;3.88;3.50;;;;;;;27.54;33.98;96529.56;5077875;28;20366;-29
2023/09/09 07:15:09;;;;;;;5.57;3.40;;;;;;;27.48;34.75;96530.94;5080373;28;20432;-28
2023/09/09 07:17:35;;;;;;;5.22;3.45;;;;;;;27.78;33.76;96538.97;5080230;28;20017;-28
2023/09/09 07:20:00;;;;;;;5.82;3.65;;;;;;;27.65;34.80;96534.19;5080658;28;20020;-28
2023/09/09 07:22:26;;;;;;;5.88;3.53;;;;;;;27.64;34.26;96534.72;5083634;28;20385;-28
2023/09/09 07:24:51;;;;;;;4.18;3.67;;;;;;;27.71;34.34;96542.41;5083643;28;20074;-28
2023/09/09 07:27:17;;;;;;;7.20;3.85;;;;;;;27.70;34.49;96546.47;5083844;28;20032;-28
2023/09/09 07:29:42;;;;;;;5.63;3.45;;;;;;;27.87;34.46;96541.31;5086095;28;20035;-29
2023/09/09 07:32:08;;;;;;;5.60;3.72;;;;;;;27.77;33.97;96548.63;5088303;28;20036;-28
2023/09/09 07:34:34;;;;;;;4.43;3.50;;;;;;;27.83;34.17;96549.22;5084503;28;20043;-28
2023/09/09 07:37:00;;;;;;;5.03;3.63;;;;;;;27.84;34.51;96565.41;5090093;28;20028;-28
2023/09/09 07:39:28;;;;;;;8.07;3.72;;;;;;;27.75;34.52;96553.97;5083577;28;20036;-27
2023/09/09 07:41:54;;;;;;;5.70;3.60;;;;;;;27.90;34.46;96559.75;5085903;28;20051;-28
2023/09/09 07:44:19;;;;;;;8.65;3.72;;;;;;;27.94;33.89;96559.41;5080851;28;20032;-27
2023/09/09 07:46:45;;;;;;;6.50;3.90;;;;;;;28.05;34.13;96562.72;5090881;28;20027;-28
2023/09/09 07:49:10;;;;;;;4.55;3.50;;;;;;;28.00;34.21;96558.00;5086753;28;20129;-28
2023/09/09 07:51:36;;;;;;;4.30;3.50;;;;;;;28.02;34.08;96558.22;5086706;28;20026;-28
2023/09/09 07:54:01;;;;;;;4.95;3.55;;;;;;;28.02;34.21;96554.66;5084834;28;20362;-28
2023/09/09 07:56:27;;;;;;;5.47;3.83;;;;;;;28.07;33.80;96557.31;5086060;28;20012;-28
2023/09/09 07:58:52;;;;;;;5.32;3.97;;;;;;;28.08;34.00;96555.28;5084861;28;20461;-27
2023/09/09 08:01:18;;;;;;;4.10;3.70;;;;;;;28.14;33.93;96553.88;5079113;28;20020;-28
2023/09/09 08:03:43;;;;;;;4.93;3.58;;;;;;;28.09;34.01;96557.53;5080113;28;20489;-28
2023/09/09 08:06:09;;;;;;;7.57;3.70;;;;;;;28.10;33.74;96572.97;5082924;28;20434;-28
2023/09/09 08:08:38;;;;;;;4.72;3.78;;;;;;;28.22;34.08;96567.94;5082958;28;20458;-28
2023/09/09 08:11:04;;;;;;;5.20;3.65;;;;;;;28.18;33.88;96562.69;5082908;28;20060;-28
2023/09/09 08:13:30;;;;;;;5.07;3.45;;;;;;;28.20;33.98;96565.66;5075255;28;20028;-28
2023/09/09 08:15:57;;;;;;;5.38;4.22;;;;;;;28.27;33.82;96569.09;5083034;28;20031;-28
2023/09/09 08:18:23;;;;;;;7.45;4.10;;;;;;;28.36;33.84;96563.03;5077202;28;20016;-28
2023/09/09 08:20:52;;;;;;;4.68;3.63;;;;;;;28.21;34.05;96569.97;5089121;28;20036;-28
2023/09/09 08:23:18;;;;;;;4.22;3.78;;;;;;;28.42;33.61;96574.84;5082555;28;20033;-27
2023/09/09 08:25:44;;;;;;;5.18;3.45;;;;;;;28.31;33.59;96569.53;5082324;28;20025;-28
2023/09/09 08:28:09;;;;;;;4.40;3.40;;;;;;;28.26;33.66;96573.16;5081574;28;20096;-28
2023/09/09 08:30:35;;;;;;;5.05;3.60;;;;;;;28.29;34.07;96566.53;5076005;28;20020;-28
2023/09/09 08:33:01;;;;;;;6.40;3.88;;;;;;;28.51;33.59;96572.31;5082727;28;20567;-28
2023/09/09 08:35:29;;;;;;;4.50;3.80;;;;;;;28.48;33.54;96572.66;5082005;28;20059;-29
2023/09/09 08:37:55;;;;;;;3.75;3.45;;;;;;;28.39;33.42;96575.91;5082546;28;20036;-27
2023/09/09 08:40:20;;;;;;;5.00;3.90;;;;;;;28.33;33.33;96575.28;5074835;28;20017;-29
2023/09/09 08:43:18;;;;;;;5.25;3.42;;;;;;;28.48;33.58;96576.19;5082253;28;20072;-28
2023/09/09 08:45:58;;;;;;;5.40;3.72;;;;;;;28.45;33.65;96579.31;5082054;28;20023;-29
2023/09/09 08:48:27;;;;;;;5.85;3.55;;;;;;;28.59;33.30;96586.34;5082058;28;20055;-28
2023/09/09 08:50:57;;;;;;;4.55;3.60;;;;;;;28.46;33.51;96591.97;5083305;28;20021;-28
2023/09/09 08:53:25;;;;;;;6.90;3.65;;;;;;;28.61;33.43;96583.75;5078760;28;20031;-28
2023/09/09 08:55:55;;;;;;;3.80;3.40;;;;;;;28.43;33.15;96576.34;5082116;28;20044;-28
2023/09/09 08:58:21;;;;;;;4.82;3.60;;;;;;;28.56;33.33;96567.91;5082010;28;20017;-27
2023/09/09 09:00:47;;;;;;;4.75;3.80;;;;;;;28.63;33.21;96578.38;5081925;28;20537;-29
2023/09/09 09:03:14;;;;;;;5.05;3.22;;;;;;;28.54;33.33;96574.03;5076428;28;20108;-27
2023/09/09 09:05:42;;;;;;;8.02;4.18;;;;;;;28.45;33.83;96579.31;5084922;28;20099;-28
2023/09/09 09:08:09;;;;;;;4.25;3.33;;;;;;;28.55;33.05;96583.91;5076373;28;20029;-28
2023/09/09 09:10:36;;;;;;;4.70;3.70;;;;;;;28.47;33.41;96577.47;5087950;28;20381;-27
2023/09/09 09:13:01;;;;;;;6.97;3.58;;;;;;;28.47;33.37;96582.31;5082090;28;20040;-28
2023/09/09 09:15:32;;;;;;;4.35;3.95;;;;;;;28.51;33.58;96579.94;5082077;28;20024;-28
2023/09/09 09:17:59;;;;;;;4.55;3.70;;;;;;;28.54;33.23;96576.06;5081475;28;20048;-28
2023/09/09 09:20:27;;;;;;;8.13;3.85;;;;;;;28.62;33.11;96588.03;5088556;28;20027;-28
2023/09/09 09:22:57;;;;;;;4.78;3.60;;;;;;;28.57;33.20;96588.91;5086390;28;20028;-27
2023/09/09 09:25:23;;;;;;;4.82;3.65;;;;;;;28.68;32.91;96588.66;5083207;28;20024;-27
2023/09/09 09:27:48;;;;;;;6.22;3.85;;;;;;;28.63;33.29;96589.53;5081096;28;20028;-28
2023/09/09 09:30:14;;;;;;;5.53;3.58;;;;;;;28.63;32.70;96586.00;5081043;28;20024;-28
2023/09/09 09:32:43;;;;;;;6.00;3.88;;;;;;;28.57;33.01;96584.09;5080855;28;20020;-28
2023/09/09 09:35:27;;;;;;;5.90;3.45;;;;;;;28.58;33.03;96582.03;5080972;28;20514;-29
2023/09/09 09:38:06;;;;;;;4.97;3.85;;;;;;;28.79;32.63;96582.84;5084406;28;20024;-28
2023/09/09 09:40:32;;;;;;;4.75;3.80;;;;;;;28.80;32.92;96583.59;5083691;28;20016;-27
2023/09/09 09:42:57;;;;;;;4.30;3.90;;;;;;;28.55;33.17;96581.13;5076240;28;20055;-29
2023/09/09 09:45:27;;;;;;;4.43;3.75;;;;;;;28.73;32.66;96593.34;5085016;28;20021;-28
2023/09/09 09:47:54;;;;;;;4.53;4.05;;;;;;;28.71;32.82;96592.38;5073797;28;20025;-27
2023/09/09 09:50:30;;;;;;;5.10;3.90;;;;;;;28.77;32.77;96593.03;5086126;28;20028;-28
2023/09/09 09:53:01;;;;;;;4.75;3.97;;;;;;;28.81;32.41;96588.59;5081994;28;20024;-28
2023/09/09 09:55:28;;;;;;;4.50;3.70;;;;;;;28.81;32.55;96583.03;5079075;28;20024;-28
2023/09/09 09:57:55;;;;;;;5.20;4.28;;;;;;;28.81;32.57;96588.59;5080565;28;20027;-28
2023/09/09 10:00:22;;;;;;;3.83;3.45;;;;;;;28.79;32.27;96588.44;5083901;28;20108;-28
2023/09/09 10:02:55;;;;;;;4.57;3.60;;;;;;;28.88;32.13;96576.78;5076734;28;20107;-29
2023/09/09 10:05:23;;;;;;;7.72;4.45;;;;;;;28.84;32.02;96586.78;5080841;28;20088;-28
2023/09/09 10:08:04;;;;;;;9.27;4.55;;;;;;;28.82;32.21;96581.72;5087085;28;20028;-28
2023/09/09 10:10:33;;;;;;;4.55;4.03;;;;;;;28.86;32.20;96586.97;5087370;28;20028;-28
2023/09/09 10:13:09;;;;;;;4.72;3.85;;;;;;;28.97;32.07;96581.13;5081078;28;20032;-27
2023/09/09 10:15:36;;;;;;;6.40;4.35;;;;;;;28.89;32.33;96578.28;5080865;28;20031;-28
2023/09/09 10:18:03;;;;;;;5.13;3.88;;;;;;;28.86;31.90;96579.34;5087444;28;20028;-28
2023/09/09 10:20:29;;;;;;;7.43;4.35;;;;;;;28.92;32.08;96574.41;5080470;28;20331;-27
2023/09/09 10:22:59;;;;;;;4.50;3.88;;;;;;;28.90;31.95;96574.19;5073677;28;20034;-28
2023/09/09 10:25:32;;;;;;;6.93;3.90;;;;;;;28.92;32.22;96566.03;5081603;28;20107;-28
2023/09/09 10:27:58;;;;;;;3.90;3.45;;;;;;;28.92;32.31;96566.03;5083815;28;20032;-27
2023/09/09 10:30:24;;;;;;;6.88;3.95;;;;;;;29.00;32.02;96570.91;5082382;28;20393;-28
2023/09/09 10:32:50;;;;;;;6.07;4.00;;;;;;;28.98;31.89;96562.31;5076377;28;20020;-28
2023/09/09 10:35:17;;;;;;;7.80;4.65;;;;;;;29.02;32.19;96562.72;5077260;28;20035;-27
2023/09/09 10:37:43;;;;;;;5.30;4.13;;;;;;;29.04;31.97;96560.16;5080163;28;20028;-29
2023/09/09 10:40:10;;;;;;;5.25;4.63;;;;;;;29.00;32.00;96570.91;5077862;28;20068;-28
2023/09/09 10:42:41;;;;;;;5.32;4.40;;;;;;;29.02;31.92;96568.31;5082557;28;20044;-28
2023/09/09 10:45:29;;;;;;;5.47;4.38;;;;;;;29.06;31.82;96563.88;5072903;28;20085;-27
2023/09/09 10:48:02;;;;;;;4.30;3.70;;;;;;;29.06;32.11;96561.06;5080276;28;20987;-28
2023/09/09 10:50:40;;;;;;;5.93;3.78;;;;;;;29.16;31.49;96566.94;5078693;28;20069;-29
2023/09/09 10:53:16;;;;;;;6.03;4.22;;;;;;;29.10;31.30;96564.28;5082578;28;20148;-28
2023/09/09 10:55:42;;;;;;;5.82;4.18;;;;;;;29.09;31.52;96557.19;5084835;28;20114;-28
2023/09/09 10:58:08;;;;;;;8.45;4.43;;;;;;;29.22;31.34;96561.94;5084263;28;20024;-28
2023/09/09 11:00:41;;;;;;;5.00;3.90;;;;;;;29.11;31.59;96560.19;5081715;28;20024;-29
2023/09/09 11:03:30;;;;;;;5.70;4.75;;;;;;;29.18;31.52;96553.16;5078371;28;20082;-27
2023/09/09 11:06:18;;;;;;;9.27;4.75;;;;;;;29.21;31.47;96546.47;5082506;28;20043;-29
2023/09/09 11:08:46;;;;;;;4.93;4.43;;;;;;;29.14;31.82;96547.19;5082227;28;20078;-28
2023/09/09 11:11:17;;;;;;;5.22;4.25;;;;;;;29.25;31.84;96544.84;5084463;28;20028;-27
2023/09/09 11:14:03;;;;;;;5.22;4.25;;;;;;;29.21;31.26;96546.47;5081568;28;20377;-27
2023/09/09 11:16:39;;;;;;;5.95;4.05;;;;;;;29.24;30.88;96540.53;5083829;28;20043;-27
2023/09/09 11:19:10;;;;;;;4.28;3.50;;;;;;;29.31;30.62;96536.28;5084141;28;20031;-28
2023/09/09 11:21:39;;;;;;;4.90;3.63;;;;;;;29.24;30.78;96531.41;5086859;28;20016;-28
2023/09/09 11:24:06;;;;;;;5.20;3.85;;;;;;;29.34;30.46;96535.19;5087376;28;20445;-28
2023/09/09 11:26:32;;;;;;;7.38;3.72;;;;;;;29.32;30.44;96537.78;5078248;28;22029;-29
2023/09/09 11:28:59;;;;;;;4.97;3.88;;;;;;;29.30;30.09;96543.19;5086610;28;20020;-27
2023/09/09 11:31:24;;;;;;;4.97;3.53;;;;;;;29.31;30.16;96522.31;5078402;28;20028;-29
2023/09/09 11:33:50;;;;;;;4.40;4.00;;;;;;;29.32;30.72;96537.78;5083607;28;20366;-28